Oasis, Iowa
Current Conditions -  °F | °C
As of 6:12 PM on Friday 24 Oct 2014 (Local Time) from KIOW Reporting Station
Light Rain Light Rain  
Wind Chill: 61°   Ceiling: 1000
Heat Index: 61°   Visibility: 4mi
Dew Point: 60°   Wind: 3mph
Humidity: 97%   Direction: 220°SW
Pressure: 29.95"   Gusts: NA
Location:  41.6714°N, 91.2723°W
Report Text: KIOW 242312Z AUTO 22003KT 4SM -RA BR BKN010 OVC013 16/16 A2995 RMK AO2 CIG 007V011 P0001 T01610156
Loading
Personal Weather Stations






























Interactive Weather Map
Tropical Storm Tracking
New forecast layout! Learn more

10-Day Weather Forecast

Advertisements
Track Severe Weather on mobile